sensor_id;sensor_type;location;lat;lon;timestamp;pressure;altitude;pressure_sealevel;temperature;humidity
27334;BME280;14817;57.104;-2.094;2024-02-21T00:00:46;99551.69;;;3.63;100.00
27334;BME280;14817;57.104;-2.094;2024-02-21T00:03:13;99556.00;;;3.64;100.00
27334;BME280;14817;57.104;-2.094;2024-02-21T00:05:40;99546.41;;;3.63;100.00
27334;BME280;14817;57.104;-2.094;2024-02-21T00:08:07;99546.41;;;3.63;100.00
27334;BME280;14817;57.104;-2.094;2024-02-21T00:10:34;99545.69;;;3.61;100.00
27334;BME280;14817;57.104;-2.094;2024-02-21T00:13:02;99543.81;;;3.52;100.00
27334;BME280;14817;57.104;-2.094;2024-02-21T00:15:29;99550.91;;;3.51;100.00
27334;BME280;14817;57.104;-2.094;2024-02-21T00:17:58;99546.34;;;3.53;100.00
27334;BME280;14817;57.104;-2.094;2024-02-21T00:20:25;99541.16;;;3.52;100.00
27334;BME280;14817;57.104;-2.094;2024-02-21T00:22:55;99518.75;;;3.56;100.00
27334;BME280;14817;57.104;-2.094;2024-02-21T00:25:22;99513.22;;;3.59;100.00
27334;BME280;14817;57.104;-2.094;2024-02-21T00:27:49;99489.09;;;3.52;100.00
27334;BME280;14817;57.104;-2.094;2024-02-21T00:30:17;99477.78;;;3.50;100.00
27334;BME280;14817;57.104;-2.094;2024-02-21T00:32:45;99497.84;;;3.53;100.00
27334;BME280;14817;57.104;-2.094;2024-02-21T00:35:15;99493.66;;;3.50;100.00
27334;BME280;14817;57.104;-2.094;2024-02-21T00:37:44;99491.16;;;3.48;100.00
27334;BME280;14817;57.104;-2.094;2024-02-21T00:40:12;99488.91;;;3.44;100.00
27334;BME280;14817;57.104;-2.094;2024-02-21T00:42:39;99486.50;;;3.41;100.00
27334;BME280;14817;57.104;-2.094;2024-02-21T00:45:06;99484.97;;;3.38;100.00
27334;BME280;14817;57.104;-2.094;2024-02-21T00:47:33;99474.66;;;3.35;100.00
27334;BME280;14817;57.104;-2.094;2024-02-21T00:50:01;99462.66;;;3.31;100.00
27334;BME280;14817;57.104;-2.094;2024-02-21T00:52:29;99467.38;;;3.27;100.00
27334;BME280;14817;57.104;-2.094;2024-02-21T00:54:56;99454.53;;;3.23;100.00
27334;BME280;14817;57.104;-2.094;2024-02-21T00:57:23;99450.34;;;3.20;100.00
27334;BME280;14817;57.104;-2.094;2024-02-21T00:59:50;99447.63;;;3.32;100.00
27334;BME280;14817;57.104;-2.094;2024-02-21T01:02:17;99416.97;;;3.29;100.00
27334;BME280;14817;57.104;-2.094;2024-02-21T01:04:44;99439.06;;;3.18;100.00
27334;BME280;14817;57.104;-2.094;2024-02-21T01:07:12;99429.41;;;3.08;100.00
27334;BME280;14817;57.104;-2.094;2024-02-21T01:09:38;99432.56;;;3.01;100.00
27334;BME280;14817;57.104;-2.094;2024-02-21T01:12:06;99414.78;;;3.03;100.00
27334;BME280;14817;57.104;-2.094;2024-02-21T01:14:33;99418.56;;;3.11;100.00
27334;BME280;14817;57.104;-2.094;2024-02-21T01:17:00;99424.16;;;3.17;100.00
27334;BME280;14817;57.104;-2.094;2024-02-21T01:19:28;99408.03;;;3.20;100.00
27334;BME280;14817;57.104;-2.094;2024-02-21T01:21:54;99414.56;;;3.16;100.00
27334;BME280;14817;57.104;-2.094;2024-02-21T01:24:21;99401.97;;;3.09;100.00
27334;BME280;14817;57.104;-2.094;2024-02-21T01:26:51;99408.25;;;3.08;100.00
27334;BME280;14817;57.104;-2.094;2024-02-21T01:29:19;99409.59;;;3.02;100.00
27334;BME280;14817;57.104;-2.094;2024-02-21T01:31:46;99397.91;;;3.04;100.00
27334;BME280;14817;57.104;-2.094;2024-02-21T01:34:14;99374.69;;;3.08;100.00
27334;BME280;14817;57.104;-2.094;2024-02-21T01:36:41;99361.72;;;3.05;100.00
27334;BME280;14817;57.104;-2.094;2024-02-21T01:39:08;99363.09;;;2.99;100.00
27334;BME280;14817;57.104;-2.094;2024-02-21T01:41:35;99358.53;;;3.01;100.00
27334;BME280;14817;57.104;-2.094;2024-02-21T01:44:05;99347.53;;;3.06;100.00
27334;BME280;14817;57.104;-2.094;2024-02-21T01:46:32;99344.66;;;3.19;100.00
27334;BME280;14817;57.104;-2.094;2024-02-21T01:48:59;99356.91;;;3.20;100.00
27334;BME280;14817;57.104;-2.094;2024-02-21T01:51:27;99375.81;;;3.15;100.00
27334;BME280;14817;57.104;-2.094;2024-02-21T01:53:55;99372.75;;;3.10;100.00
27334;BME280;14817;57.104;-2.094;2024-02-21T01:56:23;99375.41;;;3.10;100.00
27334;BME280;14817;57.104;-2.094;2024-02-21T01:58:51;99368.47;;;3.19;100.00
27334;BME280;14817;57.104;-2.094;2024-02-21T02:01:18;99361.50;;;3.18;100.00
27334;BME280;14817;57.104;-2.094;2024-02-21T02:03:48;99354.13;;;3.21;100.00
27334;BME280;14817;57.104;-2.094;2024-02-21T02:06:19;99346.06;;;3.23;100.00
27334;BME280;14817;57.104;-2.094;2024-02-21T02:08:49;99343.53;;;3.12;100.00
27334;BME280;14817;57.104;-2.094;2024-02-21T02:11:18;99326.06;;;2.99;100.00
27334;BME280;14817;57.104;-2.094;2024-02-21T02:13:45;99309.09;;;3.02;100.00
27334;BME280;14817;57.104;-2.094;2024-02-21T02:16:14;99301.28;;;3.00;100.00
27334;BME280;14817;57.104;-2.094;2024-02-21T02:18:43;99300.59;;;2.98;100.00
27334;BME280;14817;57.104;-2.094;2024-02-21T02:21:32;99291.16;;;3.05;100.00
27334;BME280;14817;57.104;-2.094;2024-02-21T02:23:59;99291.41;;;3.02;100.00
27334;BME280;14817;57.104;-2.094;2024-02-21T02:26:26;99286.00;;;3.04;100.00
27334;BME280;14817;57.104;-2.094;2024-02-21T02:28:53;99281.00;;;3.01;100.00
27334;BME280;14817;57.104;-2.094;2024-02-21T02:31:21;99264.00;;;3.03;100.00
27334;BME280;14817;57.104;-2.094;2024-02-21T02:33:48;99267.63;;;3.02;100.00
27334;BME280;14817;57.104;-2.094;2024-02-21T02:36:15;99246.75;;;2.99;100.00
27334;BME280;14817;57.104;-2.094;2024-02-21T02:38:44;99237.81;;;3.00;100.00
27334;BME280;14817;57.104;-2.094;2024-02-21T02:41:11;99238.09;;;2.97;100.00
27334;BME280;14817;57.104;-2.094;2024-02-21T02:43:38;99242.81;;;2.84;100.00
27334;BME280;14817;57.104;-2.094;2024-02-21T02:46:05;99235.84;;;2.83;100.00
27334;BME280;14817;57.104;-2.094;2024-02-21T02:48:32;99226.09;;;2.83;100.00
27334;BME280;14817;57.104;-2.094;2024-02-21T02:50:59;99222.19;;;2.88;100.00
27334;BME280;14817;57.104;-2.094;2024-02-21T02:53:26;99222.38;;;2.86;100.00
27334;BME280;14817;57.104;-2.094;2024-02-21T02:55:52;99230.81;;;2.80;100.00
27334;BME280;14817;57.104;-2.094;2024-02-21T02:58:19;99211.38;;;2.91;100.00
27334;BME280;14817;57.104;-2.094;2024-02-21T03:00:46;99221.09;;;2.90;100.00
27334;BME280;14817;57.104;-2.094;2024-02-21T03:03:13;99208.72;;;2.91;100.00
27334;BME280;14817;57.104;-2.094;2024-02-21T03:05:40;99191.34;;;2.98;100.00
27334;BME280;14817;57.104;-2.094;2024-02-21T03:08:07;99186.75;;;3.00;100.00
27334;BME280;14817;57.104;-2.094;2024-02-21T03:10:34;99187.88;;;2.97;100.00
27334;BME280;14817;57.104;-2.094;2024-02-21T03:13:01;99182.44;;;2.99;100.00
27334;BME280;14817;57.104;-2.094;2024-02-21T03:15:28;99159.88;;;3.04;100.00
27334;BME280;14817;57.104;-2.094;2024-02-21T03:17:55;99169.66;;;3.14;100.00
27334;BME280;14817;57.104;-2.094;2024-02-21T03:20:22;99173.13;;;3.14;100.00
27334;BME280;14817;57.104;-2.094;2024-02-21T03:22:49;99155.03;;;3.19;100.00
27334;BME280;14817;57.104;-2.094;2024-02-21T03:25:16;99154.31;;;3.17;100.00
27334;BME280;14817;57.104;-2.094;2024-02-21T03:27:43;99135.38;;;3.22;100.00
27334;BME280;14817;57.104;-2.094;2024-02-21T03:30:10;99135.38;;;3.22;100.00
27334;BME280;14817;57.104;-2.094;2024-02-21T03:32:37;99129.41;;;3.20;100.00
27334;BME280;14817;57.104;-2.094;2024-02-21T03:35:06;99127.75;;;3.19;100.00
27334;BME280;14817;57.104;-2.094;2024-02-21T03:37:33;99137.91;;;3.23;100.00
27334;BME280;14817;57.104;-2.094;2024-02-21T03:40:00;99120.63;;;3.29;100.00
27334;BME280;14817;57.104;-2.094;2024-02-21T03:42:27;99120.63;;;3.29;100.00
27334;BME280;14817;57.104;-2.094;2024-02-21T03:44:56;99112.13;;;3.35;100.00
27334;BME280;14817;57.104;-2.094;2024-02-21T03:47:23;99103.78;;;3.40;100.00
27334;BME280;14817;57.104;-2.094;2024-02-21T03:49:50;99094.72;;;3.42;100.00
27334;BME280;14817;57.104;-2.094;2024-02-21T03:52:17;99081.78;;;3.39;100.00
27334;BME280;14817;57.104;-2.094;2024-02-21T03:54:44;99070.06;;;3.32;100.00
27334;BME280;14817;57.104;-2.094;2024-02-21T03:57:11;99050.28;;;3.36;100.00
27334;BME280;14817;57.104;-2.094;2024-02-21T03:59:38;99038.19;;;3.24;100.00
27334;BME280;14817;57.104;-2.094;2024-02-21T04:02:10;99040.44;;;3.19;100.00
27334;BME280;14817;57.104;-2.094;2024-02-21T04:04:37;99024.03;;;3.05;100.00
27334;BME280;14817;57.104;-2.094;2024-02-21T04:07:04;99014.56;;;3.13;100.00
27334;BME280;14817;57.104;-2.094;2024-02-21T04:09:35;98993.69;;;3.10;100.00
27334;BME280;14817;57.104;-2.094;2024-02-21T04:12:02;98988.09;;;3.13;100.00
27334;BME280;14817;57.104;-2.094;2024-02-21T04:14:29;98959.84;;;3.13;100.00
27334;BME280;14817;57.104;-2.094;2024-02-21T04:16:57;98958.72;;;3.16;100.00
27334;BME280;14817;57.104;-2.094;2024-02-21T04:19:24;98951.06;;;3.13;100.00
27334;BME280;14817;57.104;-2.094;2024-02-21T04:21:51;98930.59;;;3.15;100.00
27334;BME280;14817;57.104;-2.094;2024-02-21T04:24:18;98931.31;;;3.17;100.00
27334;BME280;14817;57.104;-2.094;2024-02-21T04:26:45;98925.44;;;3.23;100.00
27334;BME280;14817;57.104;-2.094;2024-02-21T04:29:11;98907.16;;;3.30;100.00
27334;BME280;14817;57.104;-2.094;2024-02-21T04:31:38;98902.59;;;3.22;100.00
27334;BME280;14817;57.104;-2.094;2024-02-21T04:34:06;98903.44;;;3.22;100.00
27334;BME280;14817;57.104;-2.094;2024-02-21T04:36:33;98890.06;;;3.24;100.00
27334;BME280;14817;57.104;-2.094;2024-02-21T04:39:00;98875.44;;;3.20;100.00
27334;BME280;14817;57.104;-2.094;2024-02-21T04:41:27;98885.75;;;3.23;100.00
27334;BME280;14817;57.104;-2.094;2024-02-21T04:43:53;98870.25;;;3.28;100.00
27334;BME280;14817;57.104;-2.094;2024-02-21T04:46:21;98859.69;;;3.28;100.00
27334;BME280;14817;57.104;-2.094;2024-02-21T04:48:48;98855.66;;;3.24;100.00
27334;BME280;14817;57.104;-2.094;2024-02-21T04:51:15;98847.44;;;3.27;100.00
27334;BME280;14817;57.104;-2.094;2024-02-21T04:53:42;98843.13;;;3.26;100.00
27334;BME280;14817;57.104;-2.094;2024-02-21T04:56:08;98838.50;;;3.28;100.00
27334;BME280;14817;57.104;-2.094;2024-02-21T04:58:39;98829.31;;;3.32;100.00
27334;BME280;14817;57.104;-2.094;2024-02-21T05:01:07;98829.72;;;3.37;100.00
27334;BME280;14817;57.104;-2.094;2024-02-21T05:03:34;98829.31;;;3.32;100.00
27334;BME280;14817;57.104;-2.094;2024-02-21T05:06:01;98822.47;;;3.39;100.00
27334;BME280;14817;57.104;-2.094;2024-02-21T05:08:28;98825.38;;;3.36;100.00
27334;BME280;14817;57.104;-2.094;2024-02-21T05:10:55;98803.09;;;3.39;100.00
27334;BME280;14817;57.104;-2.094;2024-02-21T05:13:22;98811.47;;;3.34;100.00
27334;BME280;14817;57.104;-2.094;2024-02-21T05:15:49;98805.91;;;3.37;100.00
27334;BME280;14817;57.104;-2.094;2024-02-21T05:18:17;98806.72;;;3.38;100.00
27334;BME280;14817;57.104;-2.094;2024-02-21T05:20:44;98795.00;;;3.40;100.00
27334;BME280;14817;57.104;-2.094;2024-02-21T05:23:11;98799.97;;;3.43;100.00
27334;BME280;14817;57.104;-2.094;2024-02-21T05:25:38;98791.31;;;3.51;100.00
27334;BME280;14817;57.104;-2.094;2024-02-21T05:28:05;98792.38;;;3.58;100.00
27334;BME280;14817;57.104;-2.094;2024-02-21T05:30:33;98785.97;;;3.61;100.00
27334;BME280;14817;57.104;-2.094;2024-02-21T05:33:04;98799.56;;;3.66;100.00
27334;BME280;14817;57.104;-2.094;2024-02-21T05:35:31;98785.19;;;3.68;100.00
27334;BME280;14817;57.104;-2.094;2024-02-21T05:37:58;98780.34;;;3.64;100.00
27334;BME280;14817;57.104;-2.094;2024-02-21T05:40:26;98787.47;;;3.63;100.00
27334;BME280;14817;57.104;-2.094;2024-02-21T05:42:53;98791.94;;;3.63;100.00
27334;BME280;14817;57.104;-2.094;2024-02-21T05:45:20;98791.94;;;3.63;100.00
27334;BME280;14817;57.104;-2.094;2024-02-21T05:47:46;98800.03;;;3.61;100.00
27334;BME280;14817;57.104;-2.094;2024-02-21T05:50:14;98802.06;;;3.67;100.00
27334;BME280;14817;57.104;-2.094;2024-02-21T05:52:41;98792.31;;;3.68;100.00
27334;BME280;14817;57.104;-2.094;2024-02-21T05:55:08;98800.38;;;3.66;100.00
27334;BME280;14817;57.104;-2.094;2024-02-21T05:57:35;98771.13;;;3.68;100.00
27334;BME280;14817;57.104;-2.094;2024-02-21T06:00:06;98760.31;;;3.61;100.00
27334;BME280;14817;57.104;-2.094;2024-02-21T06:02:42;98762.50;;;3.66;100.00
27334;BME280;14817;57.104;-2.094;2024-02-21T06:05:09;98777.41;;;3.67;100.00
27334;BME280;14817;57.104;-2.094;2024-02-21T06:07:36;98777.78;;;3.72;100.00
27334;BME280;14817;57.104;-2.094;2024-02-21T06:10:03;98774.31;;;3.72;100.00
27334;BME280;14817;57.104;-2.094;2024-02-21T06:12:30;98762.59;;;3.74;100.00
27334;BME280;14817;57.104;-2.094;2024-02-21T06:14:57;98767.06;;;3.74;100.00
27334;BME280;14817;57.104;-2.094;2024-02-21T06:17:23;98770.19;;;3.77;100.00
27334;BME280;14817;57.104;-2.094;2024-02-21T06:19:50;98771.44;;;3.83;100.00
27334;BME280;14817;57.104;-2.094;2024-02-21T06:22:17;98760.69;;;3.84;100.00
27334;BME280;14817;57.104;-2.094;2024-02-21T06:24:44;98739.72;;;3.91;100.00
27334;BME280;14817;57.104;-2.094;2024-02-21T06:27:12;98734.28;;;3.93;100.00
27334;BME280;14817;57.104;-2.094;2024-02-21T06:29:39;98743.53;;;3.97;100.00
27334;BME280;14817;57.104;-2.094;2024-02-21T06:32:06;98737.63;;;4.03;100.00
27334;BME280;14817;57.104;-2.094;2024-02-21T06:34:33;98729.22;;;4.07;100.00
27334;BME280;14817;57.104;-2.094;2024-02-21T06:37:00;98725.34;;;4.20;100.00
27334;BME280;14817;57.104;-2.094;2024-02-21T06:39:27;98719.56;;;4.24;100.00
27334;BME280;14817;57.104;-2.094;2024-02-21T06:41:56;98712.66;;;4.32;100.00
27334;BME280;14817;57.104;-2.094;2024-02-21T06:44:30;98712.88;;;4.38;100.00
27334;BME280;14817;57.104;-2.094;2024-02-21T06:46:58;98697.50;;;4.50;100.00
27334;BME280;14817;57.104;-2.094;2024-02-21T06:49:26;98682.31;;;4.60;100.00
27334;BME280;14817;57.104;-2.094;2024-02-21T06:51:53;98670.25;;;4.66;100.00
27334;BME280;14817;57.104;-2.094;2024-02-21T06:54:20;98662.63;;;4.71;100.00
27334;BME280;14817;57.104;-2.094;2024-02-21T06:56:47;98638.28;;;4.76;100.00
27334;BME280;14817;57.104;-2.094;2024-02-21T06:59:13;98627.22;;;4.80;100.00
27334;BME280;14817;57.104;-2.094;2024-02-21T07:01:48;98610.44;;;4.80;100.00
27334;BME280;14817;57.104;-2.094;2024-02-21T07:04:15;98595.38;;;4.80;100.00
27334;BME280;14817;57.104;-2.094;2024-02-21T07:06:42;98592.06;;;4.86;100.00
27334;BME280;14817;57.104;-2.094;2024-02-21T07:09:10;98553.28;;;4.85;100.00
27334;BME280;14817;57.104;-2.094;2024-02-21T07:11:37;98541.84;;;4.85;100.00
27334;BME280;14817;57.104;-2.094;2024-02-21T07:14:04;98518.66;;;4.87;100.00
27334;BME280;14817;57.104;-2.094;2024-02-21T07:16:31;98506.88;;;4.89;100.00
27334;BME280;14817;57.104;-2.094;2024-02-21T07:19:00;98479.53;;;4.89;100.00
27334;BME280;14817;57.104;-2.094;2024-02-21T07:21:27;98478.88;;;4.87;100.00
27334;BME280;14817;57.104;-2.094;2024-02-21T07:23:53;98455.31;;;4.92;100.00
27334;BME280;14817;57.104;-2.094;2024-02-21T07:26:20;98450.34;;;4.97;100.00
27334;BME280;14817;57.104;-2.094;2024-02-21T07:28:48;98441.88;;;5.02;100.00
27334;BME280;14817;57.104;-2.094;2024-02-21T07:31:15;98445.66;;;5.07;100.00
27334;BME280;14817;57.104;-2.094;2024-02-21T07:33:42;98443.03;;;5.07;100.00
27334;BME280;14817;57.104;-2.094;2024-02-21T07:36:10;98435.41;;;5.13;100.00
27334;BME280;14817;57.104;-2.094;2024-02-21T07:38:38;98434.75;;;5.10;100.00
27334;BME280;14817;57.104;-2.094;2024-02-21T07:41:04;98428.41;;;5.20;100.00
27334;BME280;14817;57.104;-2.094;2024-02-21T07:43:32;98420.78;;;5.25;100.00
27334;BME280;14817;57.104;-2.094;2024-02-21T07:45:58;98412.81;;;5.25;100.00
27334;BME280;14817;57.104;-2.094;2024-02-21T07:48:25;98415.47;;;5.25;100.00
27334;BME280;14817;57.104;-2.094;2024-02-21T07:50:53;98411.81;;;5.26;100.00
27334;BME280;14817;57.104;-2.094;2024-02-21T07:53:20;98394.88;;;5.27;100.00
27334;BME280;14817;57.104;-2.094;2024-02-21T07:55:46;98407.97;;;5.28;100.00
27334;BME280;14817;57.104;-2.094;2024-02-21T07:58:13;98407.47;;;5.33;100.00
27334;BME280;14817;57.104;-2.094;2024-02-21T08:00:40;98397.19;;;5.38;100.00
27334;BME280;14817;57.104;-2.094;2024-02-21T08:03:07;98397.47;;;5.43;100.00
27334;BME280;14817;57.104;-2.094;2024-02-21T08:05:35;98369.06;;;5.52;100.00
27334;BME280;14817;57.104;-2.094;2024-02-21T08:08:03;98346.66;;;5.55;100.00
27334;BME280;14817;57.104;-2.094;2024-02-21T08:10:30;98339.34;;;5.57;100.00
27334;BME280;14817;57.104;-2.094;2024-02-21T08:12:58;98305.78;;;5.64;100.00
27334;BME280;14817;57.104;-2.094;2024-02-21T08:15:24;98284.03;;;5.68;100.00
27334;BME280;14817;57.104;-2.094;2024-02-21T08:17:58;98284.50;;;5.72;100.00
27334;BME280;14817;57.104;-2.094;2024-02-21T08:20:28;98271.03;;;5.73;100.00
27334;BME280;14817;57.104;-2.094;2024-02-21T08:22:55;98271.03;;;5.73;100.00
27334;BME280;14817;57.104;-2.094;2024-02-21T08:25:22;98270.50;;;5.78;100.00
27334;BME280;14817;57.104;-2.094;2024-02-21T08:27:49;98262.00;;;5.83;100.00
27334;BME280;14817;57.104;-2.094;2024-02-21T08:30:18;98265.66;;;5.82;100.00
27334;BME280;14817;57.104;-2.094;2024-02-21T08:32:45;98255.69;;;5.84;100.00
27334;BME280;14817;57.104;-2.094;2024-02-21T08:35:11;98245.53;;;5.87;100.00
27334;BME280;14817;57.104;-2.094;2024-02-21T08:37:39;98245.06;;;5.84;100.00
27334;BME280;14817;57.104;-2.094;2024-02-21T08:40:06;98234.91;;;5.87;100.00
27334;BME280;14817;57.104;-2.094;2024-02-21T08:42:36;98222.44;;;5.88;100.00
27334;BME280;14817;57.104;-2.094;2024-02-21T08:45:03;98213.50;;;5.89;100.00
27334;BME280;14817;57.104;-2.094;2024-02-21T08:47:31;98204.00;;;5.95;100.00
27334;BME280;14817;57.104;-2.094;2024-02-21T08:49:58;98200.34;;;5.96;100.00
27334;BME280;14817;57.104;-2.094;2024-02-21T08:52:30;98197.31;;;5.99;100.00
27334;BME280;14817;57.104;-2.094;2024-02-21T08:54:57;98194.13;;;6.03;100.00
27334;BME280;14817;57.104;-2.094;2024-02-21T08:57:24;98180.28;;;6.08;100.00
27334;BME280;14817;57.104;-2.094;2024-02-21T08:59:50;98168.28;;;6.12;100.00
27334;BME280;14817;57.104;-2.094;2024-02-21T09:02:17;98170.59;;;6.15;100.00
27334;BME280;14817;57.104;-2.094;2024-02-21T09:04:44;98165.91;;;6.17;100.00
27334;BME280;14817;57.104;-2.094;2024-02-21T09:07:11;98159.03;;;6.23;100.00
27334;BME280;14817;57.104;-2.094;2024-02-21T09:09:38;98153.53;;;6.24;100.00
27334;BME280;14817;57.104;-2.094;2024-02-21T09:12:07;98157.47;;;6.28;100.00
27334;BME280;14817;57.104;-2.094;2024-02-21T09:14:37;98139.53;;;6.30;100.00
27334;BME280;14817;57.104;-2.094;2024-02-21T09:17:07;98136.69;;;6.32;100.00
27334;BME280;14817;57.104;-2.094;2024-02-21T09:19:35;98139.06;;;6.27;100.00
27334;BME280;14817;57.104;-2.094;2024-02-21T09:22:02;98126.63;;;6.27;100.00
27334;BME280;14817;57.104;-2.094;2024-02-21T09:24:29;98106.00;;;6.29;100.00
27334;BME280;14817;57.104;-2.094;2024-02-21T09:26:56;98097.38;;;6.27;100.00
27334;BME280;14817;57.104;-2.094;2024-02-21T09:29:23;98081.69;;;6.32;100.00
27334;BME280;14817;57.104;-2.094;2024-02-21T09:31:53;98069.94;;;6.27;100.00
27334;BME280;14817;57.104;-2.094;2024-02-21T09:34:20;98048.97;;;6.32;100.00
27334;BME280;14817;57.104;-2.094;2024-02-21T09:36:48;98055.09;;;6.32;100.00
27334;BME280;14817;57.104;-2.094;2024-02-21T09:39:15;98037.97;;;6.35;100.00
27334;BME280;14817;57.104;-2.094;2024-02-21T09:41:50;98021.19;;;6.34;100.00
27334;BME280;14817;57.104;-2.094;2024-02-21T09:44:22;98007.97;;;6.41;100.00
27334;BME280;14817;57.104;-2.094;2024-02-21T09:47:07;97994.50;;;6.43;100.00
27334;BME280;14817;57.104;-2.094;2024-02-21T09:49:36;97967.53;;;6.46;100.00
27334;BME280;14817;57.104;-2.094;2024-02-21T09:52:05;97961.97;;;6.41;100.00
27334;BME280;14817;57.104;-2.094;2024-02-21T09:54:36;97932.59;;;6.49;100.00
27334;BME280;14817;57.104;-2.094;2024-02-21T09:57:03;97918.91;;;6.52;100.00
27334;BME280;14817;57.104;-2.094;2024-02-21T09:59:32;97899.94;;;6.55;100.00
27334;BME280;14817;57.104;-2.094;2024-02-21T10:01:59;97859.66;;;6.58;100.00
27334;BME280;14817;57.104;-2.094;2024-02-21T10:04:27;97832.25;;;6.58;100.00
27334;BME280;14817;57.104;-2.094;2024-02-21T10:06:54;97779.72;;;6.66;100.00
27334;BME280;14817;57.104;-2.094;2024-02-21T10:09:26;97761.50;;;6.63;100.00
27334;BME280;14817;57.104;-2.094;2024-02-21T10:12:08;97746.78;;;6.67;100.00
27334;BME280;14817;57.104;-2.094;2024-02-21T10:14:36;97721.63;;;6.70;100.00
27334;BME280;14817;57.104;-2.094;2024-02-21T10:17:03;97710.81;;;6.71;100.00
27334;BME280;14817;57.104;-2.094;2024-02-21T10:19:36;97709.81;;;6.72;100.00
27334;BME280;14817;57.104;-2.094;2024-02-21T10:22:07;97683.00;;;6.74;100.00
27334;BME280;14817;57.104;-2.094;2024-02-21T10:24:35;97656.84;;;6.78;100.00
27334;BME280;14817;57.104;-2.094;2024-02-21T10:27:09;97657.25;;;6.74;100.00
27334;BME280;14817;57.104;-2.094;2024-02-21T10:29:38;97631.88;;;6.79;100.00
27334;BME280;14817;57.104;-2.094;2024-02-21T10:32:09;97620.03;;;6.81;100.00
27334;BME280;14817;57.104;-2.094;2024-02-21T10:34:37;97615.94;;;6.85;100.00
27334;BME280;14817;57.104;-2.094;2024-02-21T10:37:06;97589.75;;;6.89;100.00
27334;BME280;14817;57.104;-2.094;2024-02-21T10:39:34;97586.06;;;6.90;100.00
27334;BME280;14817;57.104;-2.094;2024-02-21T10:42:03;97568.69;;;6.94;100.00
27334;BME280;14817;57.104;-2.094;2024-02-21T10:44:32;97548.22;;;6.94;100.00
27334;BME280;14817;57.104;-2.094;2024-02-21T10:46:59;97541.47;;;6.92;100.00
27334;BME280;14817;57.104;-2.094;2024-02-21T10:49:30;97539.63;;;6.92;100.00
27334;BME280;14817;57.104;-2.094;2024-02-21T10:55:06;97516.31;;;6.94;100.00
27334;BME280;14817;57.104;-2.094;2024-02-21T10:57:39;97483.75;;;6.99;100.00
27334;BME280;14817;57.104;-2.094;2024-02-21T11:00:06;97461.25;;;6.95;100.00
27334;BME280;14817;57.104;-2.094;2024-02-21T11:02:37;97440.38;;;6.99;100.00
27334;BME280;14817;57.104;-2.094;2024-02-21T11:05:05;97425.84;;;7.01;100.00
27334;BME280;14817;57.104;-2.094;2024-02-21T11:07:36;97412.53;;;7.01;100.00
27334;BME280;14817;57.104;-2.094;2024-02-21T11:10:04;97392.91;;;7.02;100.00
27334;BME280;14817;57.104;-2.094;2024-02-21T11:12:33;97383.69;;;7.05;100.00
27334;BME280;14817;57.104;-2.094;2024-02-21T11:15:06;97363.41;;;7.10;100.00
27334;BME280;14817;57.104;-2.094;2024-02-21T11:17:33;97340.91;;;7.06;100.00
27334;BME280;14817;57.104;-2.094;2024-02-21T11:20:15;97329.22;;;7.07;100.00
27334;BME280;14817;57.104;-2.094;2024-02-21T11:22:42;97321.25;;;7.07;100.00
27334;BME280;14817;57.104;-2.094;2024-02-21T11:25:10;97301.19;;;7.11;100.00
27334;BME280;14817;57.104;-2.094;2024-02-21T11:27:45;97293.41;;;7.10;100.00
27334;BME280;14817;57.104;-2.094;2024-02-21T11:30:12;97287.06;;;7.11;100.00
27334;BME280;14817;57.104;-2.094;2024-02-21T11:32:41;97273.53;;;7.12;100.00
27334;BME280;14817;57.104;-2.094;2024-02-21T11:35:08;97267.19;;;7.13;100.00
27334;BME280;14817;57.104;-2.094;2024-02-21T11:37:45;97260.44;;;7.18;100.00
27334;BME280;14817;57.104;-2.094;2024-02-21T11:40:13;97248.75;;;7.19;100.00
27334;BME280;14817;57.104;-2.094;2024-02-21T11:42:40;97225.78;;;7.24;100.00
27334;BME280;14817;57.104;-2.094;2024-02-21T11:45:07;97218.22;;;7.28;100.00
27334;BME280;14817;57.104;-2.094;2024-02-21T11:47:36;97187.63;;;7.37;100.00
27334;BME280;14817;57.104;-2.094;2024-02-21T11:50:09;97167.97;;;7.38;100.00
27334;BME280;14817;57.104;-2.094;2024-02-21T11:52:37;97161.97;;;7.49;100.00
27334;BME280;14817;57.104;-2.094;2024-02-21T11:55:04;97176.13;;;7.43;100.00
27334;BME280;14817;57.104;-2.094;2024-02-21T11:57:32;97163.03;;;7.42;100.00
27334;BME280;14817;57.104;-2.094;2024-02-21T12:00:15;97144.19;;;7.43;100.00
27334;BME280;14817;57.104;-2.094;2024-02-21T12:02:45;97145.59;;;7.46;100.00
27334;BME280;14817;57.104;-2.094;2024-02-21T12:05:13;97119.38;;;7.49;100.00
27334;BME280;14817;57.104;-2.094;2024-02-21T12:07:41;97103.75;;;7.53;100.00
27334;BME280;14817;57.104;-2.094;2024-02-21T12:10:09;97092.91;;;7.54;100.00
27334;BME280;14817;57.104;-2.094;2024-02-21T12:12:40;97082.09;;;7.49;100.00
27334;BME280;14817;57.104;-2.094;2024-02-21T12:15:07;97082.09;;;7.49;100.00
27334;BME280;14817;57.104;-2.094;2024-02-21T12:17:39;97069.75;;;7.55;100.00
27334;BME280;14817;57.104;-2.094;2024-02-21T12:20:07;97045.25;;;7.46;100.00
27334;BME280;14817;57.104;-2.094;2024-02-21T12:22:37;97029.00;;;7.54;100.00
27334;BME280;14817;57.104;-2.094;2024-02-21T12:25:19;97019.47;;;7.47;100.00
27334;BME280;14817;57.104;-2.094;2024-02-21T12:27:46;97013.69;;;7.50;100.00
27334;BME280;14817;57.104;-2.094;2024-02-21T12:30:13;97013.91;;;7.48;100.00
27334;BME280;14817;57.104;-2.094;2024-02-21T12:32:40;97016.94;;;7.52;100.00
27334;BME280;14817;57.104;-2.094;2024-02-21T12:35:08;97005.69;;;7.50;100.00
27334;BME280;14817;57.104;-2.094;2024-02-21T12:37:35;96997.50;;;7.51;100.00
27334;BME280;14817;57.104;-2.094;2024-02-21T12:40:06;96988.25;;;7.54;100.00
27334;BME280;14817;57.104;-2.094;2024-02-21T12:42:33;96972.47;;;7.52;100.00
27334;BME280;14817;57.104;-2.094;2024-02-21T12:45:02;96953.47;;;7.49;100.00
27334;BME280;14817;57.104;-2.094;2024-02-21T12:47:30;96931.94;;;7.50;100.00
27334;BME280;14817;57.104;-2.094;2024-02-21T12:49:57;96909.19;;;7.54;100.00
27334;BME280;14817;57.104;-2.094;2024-02-21T12:52:25;96894.16;;;7.60;100.00
27334;BME280;14817;57.104;-2.094;2024-02-21T12:54:52;96882.72;;;7.60;100.00
27334;BME280;14817;57.104;-2.094;2024-02-21T12:57:18;96866.16;;;7.57;100.00